KALI/ALI METAR and TAF weather

Enter ICAO airport designator
Station Type Date Time Source
KALI METAR 2018/12/13 15:53 UTC NOAA

KALI 131553Z AUTO 25011KT 10SM CLR 21/17 A2981 RMK AO2 SLP091 T02110167


Station Type Date Time Source
KALI Decoded METAR 2018/12/13 15:53 UTC NOAA

ALICE INTERNATIONAL AIRPORT, TX, United States (KALI) 27-44N 098-01W 53M
Dec 13, 2018 - 10:53 AM EST / 2018.12.13 1553 UTC
Wind: from the WSW (250 degrees) at 13 MPH (11 KT):0
Visibility: 10 mile(s):0
Sky conditions: clear
Temperature: 70.0 F (21.1 C)
Dew Point: 62.1 F (16.7 C)
Relative Humidity: 75%
Pressure (altimeter): 29.81 in. Hg (1009 hPa)
ob: KALI 131553Z AUTO 25011KT 10SM CLR 21/17 A2981 RMK AO2 SLP091 T02110167
cycle: 16

Station Type Date Time Source
KALI TAF 2018/12/13 12:34 UTC NOAA

TAF KALI 131132Z 1312/1412 24012KT P6SM SCT120
FM131600 28022G32KT P6SM SCT250
FM131900 30030G40KT P6SM SKC
FM140200 29024G32KT P6SM SKC
FM140800 29018KT P6SM SKC WS020/30050KT


Example: see airport list